Time;durP1;ratioP1;P1;durP2;ratioP2;P2;SDS_P1;SDS_P2;PMS_P1;PMS_P2;Temp;Humidity;BMP_temperature;BMP_pressure;BME280_temperature;BME280_humidity;BME280_pressure;Samples;Min_cycle;Max_cycle;Signal;HPM_P1;HPM_P2
2021/10/29 00:00:20;;;;;;;1999.90;999.90;;;;;;;9.68;72.68;101099.56;15742377;28;20048;-61
2021/10/29 00:08:08;;;;;;;1999.90;999.90;;;;;;;9.92;71.55;101096.47;15740894;28;20452;-62
2021/10/29 00:15:40;;;;;;;1999.90;999.90;;;;;;;9.38;73.59;101092.84;15739897;28;20477;-62
2021/10/29 00:23:14;;;;;;;1999.90;999.90;;;;;;;9.76;72.53;101084.88;15712289;28;20041;-59
2021/10/29 00:30:47;;;;;;;1999.90;999.90;;;;;;;9.51;73.17;101083.59;15683386;28;20049;-61
2021/10/29 00:38:21;;;;;;;1999.90;999.90;;;;;;;9.71;72.39;101076.66;15694963;28;20425;-60
2021/10/29 00:45:53;;;;;;;1999.90;999.90;;;;;;;9.78;71.65;101076.19;15687559;28;20045;-62
2021/10/29 00:53:27;;;;;;;1999.90;999.90;;;;;;;9.82;71.46;101080.81;15686050;28;20045;-60
2021/10/29 01:01:00;;;;;;;1999.90;999.90;;;;;;;9.90;71.34;101089.53;15685460;28;20087;-61
2021/10/29 01:08:35;;;;;;;1999.90;999.90;;;;;;;9.97;71.13;101073.19;15687396;28;20513;-63
2021/10/29 01:16:07;;;;;;;1999.90;999.90;;;;;;;9.61;71.45;101079.72;15688956;28;20049;-61
2021/10/29 01:23:42;;;;;;;1999.90;999.90;;;;;;;8.79;74.69;101071.66;15718063;28;20082;-61
2021/10/29 01:31:15;;;;;;;1999.90;999.90;;;;;;;8.65;75.30;101058.63;15748592;28;20048;-61
2021/10/29 01:38:52;;;;;;;1999.90;999.90;;;;;;;8.86;74.56;101039.50;15749447;28;20049;-61
2021/10/29 01:46:24;;;;;;;1999.90;999.90;;;;;;;8.79;74.11;101058.56;15749064;28;20047;-60
2021/10/29 01:53:59;;;;;;;1999.90;999.90;;;;;;;8.64;75.20;101045.81;15730819;28;20040;-62
2021/10/29 02:01:31;;;;;;;1999.90;999.90;;;;;;;8.94;74.41;101054.59;15747059;28;20484;-63
2021/10/29 02:09:05;;;;;;;1999.90;999.90;;;;;;;9.14;73.15;101059.69;15747519;28;20048;-61
2021/10/29 02:16:38;;;;;;;1999.90;999.90;;;;;;;8.62;74.51;101058.41;15745887;28;20047;-62
2021/10/29 02:24:12;;;;;;;1999.90;999.90;;;;;;;8.46;74.99;101041.22;15710690;28;20045;-64
2021/10/29 02:31:45;;;;;;;1999.90;999.90;;;;;;;8.34;75.30;101035.34;15683535;28;20488;-61
2021/10/29 02:39:19;;;;;;;1999.90;999.90;;;;;;;8.40;75.00;101025.78;15687494;28;20115;-62
2021/10/29 02:46:51;;;;;;;1999.90;999.90;;;;;;;8.54;74.15;101045.22;15684567;28;20044;-61
2021/10/29 02:54:25;;;;;;;1999.90;999.90;;;;;;;8.57;73.88;101039.88;15683836;28;20076;-62
2021/10/29 03:01:59;;;;;;;1999.90;999.90;;;;;;;8.47;74.14;101034.53;15683839;28;20069;-62
2021/10/29 03:09:33;;;;;;;1999.90;999.90;;;;;;;8.64;73.42;101033.88;15698533;28;20067;-62
2021/10/29 03:17:05;;;;;;;1999.90;999.90;;;;;;;8.61;73.00;101046.44;15682502;28;20049;-61
2021/10/29 03:24:40;;;;;;;1999.90;999.90;;;;;;;8.32;73.32;101046.75;15720578;28;20045;-62
2021/10/29 03:32:12;;;;;;;1999.90;999.90;;;;;;;8.28;73.50;101031.84;15744336;28;20298;-62
2021/10/29 03:39:55;;;;;;;1999.90;999.90;;;;;;;8.32;73.30;101038.41;15742629;28;20041;-62
2021/10/29 03:47:29;;;;;;;1999.90;999.90;;;;;;;8.11;74.11;101028.84;15741059;28;20132;-62
2021/10/29 03:55:07;;;;;;;1999.90;999.90;;;;;;;8.05;74.09;101036.47;15741616;28;20068;-62
2021/10/29 04:02:40;;;;;;;1999.90;999.90;;;;;;;8.05;73.64;101035.66;15741290;28;20404;-63
2021/10/29 04:10:14;;;;;;;1999.90;999.90;;;;;;;7.86;74.92;101024.63;15740903;28;20090;-63
2021/10/29 04:17:47;;;;;;;1999.90;999.90;;;;;;;7.32;77.08;101036.44;15737362;22;20049;-61
2021/10/29 04:25:23;;;;;;;1999.90;999.90;;;;;;;7.66;76.21;101033.34;15655280;28;20084;-61
2021/10/29 04:32:57;;;;;;;1999.90;999.90;;;;;;;7.76;75.66;101028.41;15671840;28;20048;-61
2021/10/29 04:40:31;;;;;;;1999.90;999.90;;;;;;;7.90;74.70;101042.31;15672193;28;20044;-62
2021/10/29 04:48:05;;;;;;;1999.90;999.90;;;;;;;7.84;74.50;101040.78;15671480;28;20364;-61
2021/10/29 04:55:39;;;;;;;;;;;;;;;7.85;74.02;101045.22;15670466;28;20057;-60
2021/10/29 05:03:11;;;;;;;1999.90;999.90;;;;;;;7.20;75.93;101032.19;15671165;28;19927;-61
2021/10/29 05:10:45;;;;;;;1999.90;999.90;;;;;;;7.22;76.13;101031.88;15671821;28;20084;-62
2021/10/29 05:18:19;;;;;;;1999.90;999.90;;;;;;;7.55;74.36;101041.03;15669175;28;20483;-61
2021/10/29 05:25:53;;;;;;;1999.90;999.90;;;;;;;7.50;74.19;101035.56;15620833;28;20061;-62
2021/10/29 05:33:26;;;;;;;1999.90;999.90;;;;;;;7.23;74.95;101037.13;15607334;28;20418;-62
2021/10/29 05:41:01;;;;;;;1999.90;999.90;;;;;;;7.18;72.76;101042.75;15608848;28;20340;-62
2021/10/29 05:48:34;;;;;;;1999.90;999.90;;;;;;;7.13;74.39;101028.16;15608863;28;20133;-62
2021/10/29 05:56:07;;;;;;;1999.90;999.90;;;;;;;7.08;73.51;101031.00;15619416;28;20132;-62
2021/10/29 06:03:41;;;;;;;1999.90;999.90;;;;;;;6.92;75.41;101047.06;15618617;28;20119;-62
2021/10/29 06:11:15;;;;;;;1999.90;999.90;;;;;;;7.13;75.45;101044.81;15619664;28;20049;-62
2021/10/29 06:18:48;;;;;;;1999.90;999.90;;;;;;;6.80;76.19;101038.38;15617667;28;20487;-61
2021/10/29 06:26:24;;;;;;;1999.90;999.90;;;;;;;6.89;76.34;101042.94;15671097;28;20407;-62
2021/10/29 06:33:57;;;;;;;1999.90;999.90;;;;;;;7.42;74.65;101053.75;15650837;28;20042;-62
2021/10/29 06:41:31;;;;;;;1999.90;999.90;;;;;;;7.29;74.97;101054.50;15616738;28;20049;-62
2021/10/29 06:49:10;;;;;;;1999.90;999.90;;;;;;;7.54;74.58;101053.28;15618522;28;20514;-61
2021/10/29 07:04:56;;;;;;;1999.90;999.90;;;;;;;8.43;72.57;101063.25;15611386;28;20045;-62
2021/10/29 07:43:55;;;;;;;1999.90;999.90;;;;;;;10.21;68.28;101068.03;15664352;28;20049;-57
2021/10/29 07:51:28;;;;;;;1999.90;999.90;;;;;;;10.29;66.96;101077.63;15622311;28;20178;-63
2021/10/29 07:59:03;;;;;;;1999.90;999.90;;;;;;;11.80;63.30;101082.38;15636093;28;20095;-62
2021/10/29 08:06:35;;;;;;;1999.90;999.90;;;;;;;12.34;61.26;101088.28;15627031;28;20478;-62
2021/10/29 08:14:09;;;;;;;1999.90;999.90;;;;;;;12.55;61.07;101088.34;15654875;28;20118;-62
2021/10/29 08:21:42;;;;;;;1999.90;999.90;;;;;;;13.64;59.00;101084.59;15632415;28;20055;-61
2021/10/29 08:29:17;;;;;;;1999.90;999.90;;;;;;;14.17;57.24;101080.03;15630796;28;20498;-61
2021/10/29 08:36:50;;;;;;;1999.90;999.90;;;;;;;14.94;54.69;101072.59;15648299;28;20497;-61
2021/10/29 08:44:24;;;;;;;1999.90;999.90;;;;;;;15.14;54.02;101079.22;15638063;28;20045;-62
2021/10/29 08:51:58;;;;;;;1999.90;999.90;;;;;;;15.92;53.04;101068.59;15659181;28;20419;-62
2021/10/29 08:59:33;;;;;;;1999.90;999.90;;;;;;;16.40;51.21;101070.28;15622963;28;20042;-59
2021/10/29 09:07:19;;;;;;;1999.90;999.90;;;;;;;15.97;51.81;101062.72;15603814;28;20056;-60
2021/10/29 09:38:28;;;;;;;1999.90;999.90;;;;;;;18.52;46.21;101060.19;15673890;28;20059;-62
2021/10/29 09:46:36;;;;;;;1999.90;999.90;;;;;;;20.03;42.44;101061.84;15643990;28;20064;-60
2021/10/29 09:54:14;;;;;;;1999.90;999.90;;;;;;;19.62;42.91;101061.81;15630194;28;20045;-61
2021/10/29 10:01:49;;;;;;;1999.90;999.90;;;;;;;19.36;43.25;101065.50;15621633;28;20061;-64
2021/10/29 10:09:22;;;;;;;1999.90;999.90;;;;;;;20.42;42.71;101060.22;15626469;28;20037;-61
2021/10/29 10:16:56;;;;;;;1999.90;999.90;;;;;;;21.90;38.69;101061.47;15669153;28;20109;-61
2021/10/29 10:24:32;;;;;;;1999.90;999.90;;;;;;;21.06;40.19;101053.38;15666721;28;20041;-62
2021/10/29 10:40:23;;;;;;;1999.90;999.90;;;;;;;21.95;38.58;101057.41;15647736;28;20141;-61
2021/10/29 10:48:01;;;;;;;1999.90;999.90;;;;;;;21.51;41.06;101037.81;15630801;28;20100;-62
2021/10/29 10:55:57;;;;;;;1999.90;999.90;;;;;;;21.79;39.88;101023.69;15620855;28;20544;-62
2021/10/29 11:03:51;;;;;;;1999.90;999.90;;;;;;;22.05;38.83;101016.81;15635375;28;20046;-61
2021/10/29 11:11:25;;;;;;;1999.90;999.90;;;;;;;24.81;35.85;101012.38;15651058;28;20106;-61
2021/10/29 11:19:07;;;;;;;1999.90;999.90;;;;;;;23.73;35.98;100997.38;15642864;28;20386;-62
2021/10/29 11:26:41;;;;;;;1999.90;999.90;;;;;;;23.51;36.23;100984.44;15645716;28;20041;-61
2021/10/29 11:34:16;;;;;;;1999.90;999.90;;;;;;;24.19;35.12;100970.56;15644039;28;20087;-61
2021/10/29 11:41:51;;;;;;;1999.90;999.90;;;;;;;24.70;33.88;100966.03;15642798;28;20568;-59
2021/10/29 11:49:28;;;;;;;1999.90;999.90;;;;;;;25.98;32.86;100963.56;15632885;28;20129;-61
2021/10/29 11:57:18;;;;;;;1999.90;999.90;;;;;;;26.29;31.03;100947.91;15630276;28;20390;-60
2021/10/29 12:12:47;;;;;;;1999.90;999.90;;;;;;;26.56;31.01;100926.97;15618915;28;20481;-61
2021/10/29 12:20:24;;;;;;;1999.90;999.90;;;;;;;25.52;32.85;100916.44;15627133;28;20086;-61
2021/10/29 12:28:01;;;;;;;1999.90;999.90;;;;;;;24.68;33.62;100909.38;15646269;28;20041;-61
2021/10/29 12:59:27;;;;;;;1999.90;999.90;;;;;;;25.33;32.25;100886.56;15645873;28;20183;-61
2021/10/29 13:07:05;;;;;;;1999.90;999.90;;;;;;;23.31;37.41;100873.91;15645270;28;20099;-60
2021/10/29 13:14:41;;;;;;;1999.90;999.90;;;;;;;27.19;30.28;100863.94;15625029;28;20049;-61
2021/10/29 13:38:20;;;;;;;1999.90;999.90;;;;;;;19.85;42.22;100860.63;15627954;28;20188;-60
2021/10/29 13:53:55;;;;;;;1999.90;999.90;;;;;;;18.58;46.29;100852.41;15618773;28;20076;-60
2021/10/29 14:32:58;;;;;;;1999.90;999.90;;;;;;;17.10;51.02;100810.97;15614381;28;20033;-59
2021/10/29 14:40:36;;;;;;;1999.90;999.90;;;;;;;16.65;53.26;100817.31;15615089;28;20453;-60
2021/10/29 14:48:26;;;;;;;1999.90;999.90;;;;;;;16.55;53.44;100815.91;15613056;28;20228;-58
2021/10/29 15:04:20;;;;;;;1999.90;999.90;;;;;;;16.10;53.87;100808.13;15604638;28;20530;-61
2021/10/29 15:28:01;;;;;;;1999.90;999.90;;;;;;;15.21;56.04;100784.25;15526699;28;20379;-61
2021/10/29 15:43:50;;;;;;;1999.90;999.90;;;;;;;15.00;56.20;100789.34;15612679;28;20173;-61
2021/10/29 15:51:23;;;;;;;1999.90;999.90;;;;;;;15.21;56.01;100789.06;15603700;28;20045;-61
2021/10/29 15:59:07;;;;;;;1999.90;999.90;;;;;;;15.26;55.97;100786.00;15600223;28;20057;-61
2021/10/29 16:22:23;;;;;;;1999.90;999.90;;;;;;;14.49;57.66;100789.16;15671449;22;20128;-59
2021/10/29 16:29:57;;;;;;;1999.90;999.90;;;;;;;13.85;59.60;100787.22;15671278;28;20155;-58
2021/10/29 16:37:29;;;;;;;1999.90;999.90;;;;;;;13.63;60.06;100777.31;15602399;28;20053;-59
2021/10/29 16:45:04;;;;;;;1999.90;999.90;;;;;;;13.30;61.66;100777.44;15581358;28;20566;-58
2021/10/29 16:52:37;;;;;;;1999.90;999.90;;;;;;;13.29;61.25;100767.41;15589146;28;20042;-59
2021/10/29 17:00:14;;;;;;;1999.90;999.90;;;;;;;12.61;63.55;100756.69;15589894;28;20053;-59
2021/10/29 17:07:53;;;;;;;1999.90;999.90;;;;;;;12.98;62.11;100751.13;15544572;28;20034;-59
2021/10/29 17:15:27;;;;;;;;;;;;;;;12.65;63.19;100746.41;15545911;28;20517;-57
2021/10/29 17:23:00;;;;;;;1999.90;999.90;;;;;;;13.06;62.22;100749.41;15549976;28;19921;-59
2021/10/29 17:30:35;;;;;;;1999.90;999.90;;;;;;;12.50;63.20;100740.63;15582515;28;20049;-58
2021/10/29 17:38:08;;;;;;;1999.90;999.90;;;;;;;12.26;64.38;100753.41;15596632;28;20037;-60
2021/10/29 17:45:44;;;;;;;1999.90;999.90;;;;;;;12.43;64.42;100772.00;15606405;28;20080;-59
2021/10/29 17:53:16;;;;;;;1999.90;999.90;;;;;;;12.73;62.69;100783.06;15595321;28;20485;-55
2021/10/29 18:00:51;;;;;;;1999.90;999.90;;;;;;;12.78;62.18;100785.63;15617405;28;20041;-56
2021/10/29 18:08:27;;;;;;;1999.90;999.90;;;;;;;12.72;62.06;100787.84;15595870;28;20477;-57
2021/10/29 18:16:01;;;;;;;1999.90;999.90;;;;;;;12.04;63.79;100771.34;15602081;28;20120;-58
2021/10/29 18:23:34;;;;;;;1999.90;999.90;;;;;;;12.42;62.53;100776.78;15630913;28;20040;-56
2021/10/29 18:31:08;;;;;;;1999.90;999.90;;;;;;;11.96;63.02;100772.25;15662181;28;20432;-61
2021/10/29 18:38:41;;;;;;;1999.90;999.90;;;;;;;11.74;63.74;100758.56;15630392;28;20471;-56
2021/10/29 18:46:16;;;;;;;1999.90;999.90;;;;;;;11.41;64.22;100752.88;15607253;28;20075;-59
2021/10/29 18:53:49;;;;;;;1999.90;999.90;;;;;;;11.83;62.16;100745.38;15592786;28;20045;-60
2021/10/29 19:01:26;;;;;;;1999.90;999.90;;;;;;;11.93;61.32;100739.38;15607678;28;20391;-59
2021/10/29 19:08:59;;;;;;;1999.90;999.90;;;;;;;12.29;58.98;100749.91;15598258;28;20411;-61
2021/10/29 19:16:33;;;;;;;1999.90;999.90;;;;;;;12.11;59.63;100740.88;15615233;28;20045;-61
2021/10/29 19:24:06;;;;;;;1999.90;999.90;;;;;;;12.09;59.36;100734.00;15597315;28;20041;-62
2021/10/29 19:31:40;;;;;;;1999.90;999.90;;;;;;;11.89;59.67;100727.25;15580239;28;20045;-59
2021/10/29 19:39:33;;;;;;;1999.90;999.90;;;;;;;11.71;59.72;100708.94;15596078;28;20470;-59
2021/10/29 19:47:07;;;;;;;1999.90;999.90;;;;;;;11.65;59.81;100705.50;15613308;28;20044;-61
2021/10/29 19:54:40;;;;;;;1999.90;999.90;;;;;;;11.37;60.85;100712.81;15600566;28;20041;-60
2021/10/29 20:02:13;;;;;;;1999.90;999.90;;;;;;;11.57;60.12;100709.22;15601169;28;20108;-61
2021/10/29 20:09:46;;;;;;;1999.90;999.90;;;;;;;11.43;60.31;100711.44;15588727;28;20042;-60
2021/10/29 20:17:20;;;;;;;1999.90;999.90;;;;;;;11.69;59.61;100720.47;15609343;28;20445;-60
2021/10/29 20:24:53;;;;;;;1999.90;999.90;;;;;;;11.72;59.09;100714.19;15590122;28;20049;-59
2021/10/29 20:32:27;;;;;;;1999.90;999.90;;;;;;;11.67;59.47;100721.94;15592322;28;20472;-61
2021/10/29 20:39:59;;;;;;;1999.90;999.90;;;;;;;11.52;59.72;100728.97;15589882;28;20302;-60
2021/10/29 20:47:34;;;;;;;1999.90;999.90;;;;;;;11.66;59.20;100746.28;15607655;28;20049;-57
2021/10/29 20:55:08;;;;;;;1999.90;999.90;;;;;;;11.05;60.67;100733.84;15604174;28;20076;-61
2021/10/29 21:02:42;;;;;;;1999.90;999.90;;;;;;;11.24;60.84;100717.47;15604489;28;20180;-59
2021/10/29 21:10:15;;;;;;;1999.90;999.90;;;;;;;10.97;61.65;100739.13;15593113;28;20046;-60
2021/10/29 21:17:49;;;;;;;1999.90;999.90;;;;;;;11.13;60.83;100725.41;15594164;28;20145;-60
2021/10/29 21:25:22;;;;;;;1999.90;999.90;;;;;;;11.19;60.97;100715.69;15668449;28;20077;-58
2021/10/29 21:32:56;;;;;;;1999.90;999.90;;;;;;;11.18;60.98;100738.38;15667568;28;20041;-58
2021/10/29 21:40:28;;;;;;;1999.90;999.90;;;;;;;11.02;61.55;100712.16;15651760;28;20056;-60
2021/10/29 21:48:02;;;;;;;1999.90;999.90;;;;;;;10.84;62.25;100715.06;15667212;28;20041;-59
2021/10/29 21:55:35;;;;;;;1999.90;999.90;;;;;;;10.79;62.74;100720.00;15666587;28;20063;-61
2021/10/29 22:03:11;;;;;;;1999.90;999.90;;;;;;;10.55;63.43;100706.63;15682513;28;20120;-61
2021/10/29 22:10:45;;;;;;;1999.90;999.90;;;;;;;10.68;62.65;100700.81;15665884;28;20565;-60
2021/10/29 22:18:19;;;;;;;1999.90;999.90;;;;;;;10.36;63.68;100688.28;15690209;22;20068;-61
2021/10/29 22:25:54;;;;;;;1999.90;999.90;;;;;;;10.67;62.77;100695.56;15616569;28;20041;-61
2021/10/29 22:33:28;;;;;;;1999.90;999.90;;;;;;;10.40;63.98;100707.97;15625060;28;20103;-61
2021/10/29 22:41:01;;;;;;;1999.90;999.90;;;;;;;10.67;63.01;100704.78;15606911;28;20041;-61
2021/10/29 22:48:35;;;;;;;1999.90;999.90;;;;;;;10.67;63.34;100712.31;15609823;28;20054;-60
2021/10/29 22:56:10;;;;;;;1999.90;999.90;;;;;;;10.70;62.43;100706.06;15605639;28;20541;-59
2021/10/29 23:03:44;;;;;;;1999.90;999.90;;;;;;;10.44;63.48;100703.38;15577026;28;20498;-58
2021/10/29 23:11:17;;;;;;;1999.90;999.90;;;;;;;10.34;63.66;100695.34;15561661;28;20098;-60
2021/10/29 23:18:51;;;;;;;1999.90;999.90;;;;;;;10.11;64.69;100719.81;15548182;28;20433;-60
2021/10/29 23:26:26;;;;;;;1999.90;999.90;;;;;;;10.06;65.00;100701.28;15566830;28;20048;-61
2021/10/29 23:34:00;;;;;;;1999.90;999.90;;;;;;;9.99;65.02;100720.47;15622550;28;20060;-61
2021/10/29 23:41:33;;;;;;;1999.90;999.90;;;;;;;10.40;63.92;100749.81;15562314;28;20518;-60
2021/10/29 23:49:07;;;;;;;1999.90;999.90;;;;;;;10.30;63.90;100737.00;15559728;28;20084;-62
2021/10/29 23:56:40;;;;;;;1999.90;999.90;;;;;;;10.53;62.69;100736.84;15602403;28;20720;-61
